Time;durP1;ratioP1;P1;durP2;ratioP2;P2;SDS_P1;SDS_P2;PMS_P1;PMS_P2;Temp;Humidity;BMP_temperature;BMP_pressure;BME280_temperature;BME280_humidity;BME280_pressure;Samples;Min_cycle;Max_cycle;Signal;HPM_P1;HPM_P2
2021/12/03 00:00:20;;;;;;;6.22;2.97;;;;;;;12.10;nan;100934.56;1036148;28;20026;-69
2021/12/03 00:00:52;;;;;;;4.15;2.78;;;;;;;12.10;nan;100931.97;1043272;28;20053;-68
2021/12/03 00:01:25;;;;;;;5.05;2.78;;;;;;;12.09;nan;100930.22;1042993;28;20096;-69
2021/12/03 00:01:55;;;;;;;4.78;2.80;;;;;;;12.09;nan;100930.22;1044589;28;20074;-69
2021/12/03 00:02:26;;;;;;;5.30;3.00;;;;;;;12.09;nan;100935.41;1040571;28;20079;-69
2021/12/03 00:02:56;;;;;;;5.18;2.85;;;;;;;12.09;nan;100940.56;1040027;28;20049;-68
2021/12/03 00:03:26;;;;;;;4.65;2.83;;;;;;;12.08;nan;100933.66;1036100;28;20014;-69
2021/12/03 00:03:57;;;;;;;5.55;3.00;;;;;;;12.08;nan;100943.97;1035856;28;20041;-68
2021/12/03 00:04:27;;;;;;;5.32;3.20;;;;;;;12.07;nan;100937.91;1031079;28;20030;-68
2021/12/03 00:04:58;;;;;;;5.13;3.03;;;;;;;12.08;nan;100938.81;1036128;28;20018;-68
2021/12/03 00:05:28;;;;;;;6.10;3.10;;;;;;;12.06;nan;100937.06;1039709;28;20423;-68
2021/12/03 00:05:58;;;;;;;5.57;3.10;;;;;;;12.06;nan;100942.22;1034543;28;20026;-68
2021/12/03 00:06:34;;;;;;;4.72;2.80;;;;;;;12.08;nan;100938.81;1044229;28;20025;-68
2021/12/03 00:07:04;;;;;;;6.28;3.05;;;;;;;12.09;nan;100937.97;1040271;28;20033;-68
2021/12/03 00:07:37;;;;;;;4.80;2.65;;;;;;;12.06;nan;100937.06;1032139;28;20107;-69
2021/12/03 00:08:07;;;;;;;6.15;3.50;;;;;;;12.05;nan;100935.31;1035880;28;20018;-68
2021/12/03 00:08:38;;;;;;;4.57;2.65;;;;;;;12.06;nan;100937.06;1035624;28;20409;-68
2021/12/03 00:09:08;;;;;;;4.70;2.83;;;;;;;12.06;nan;100936.22;1040559;28;20017;-69
2021/12/03 00:09:39;;;;;;;5.45;2.78;;;;;;;12.05;nan;100935.31;1048090;28;20024;-68
2021/12/03 00:10:11;;;;;;;5.25;2.88;;;;;;;12.06;nan;100939.66;1047706;28;20463;-68
2021/12/03 00:10:43;;;;;;;6.55;2.95;;;;;;;12.06;nan;100936.22;1044037;28;20028;-68
2021/12/03 00:11:14;;;;;;;4.47;2.80;;;;;;;12.06;nan;100936.22;1042681;28;20013;-68
2021/12/03 00:11:44;;;;;;;5.78;2.97;;;;;;;12.06;nan;100934.47;1039997;28;20029;-68
2021/12/03 00:12:15;;;;;;;7.10;2.80;;;;;;;12.05;nan;100940.47;1040075;28;20017;-68
2021/12/03 00:12:45;;;;;;;5.07;2.95;;;;;;;12.05;nan;100935.31;1029388;28;20105;-68
2021/12/03 00:13:16;;;;;;;5.68;2.90;;;;;;;12.05;nan;100943.06;1027472;28;20026;-68
2021/12/03 00:13:46;;;;;;;6.15;3.00;;;;;;;12.04;nan;100936.16;1036086;28;20026;-68
2021/12/03 00:14:16;;;;;;;4.90;2.80;;;;;;;12.04;nan;100928.41;1040077;28;20026;-68
2021/12/03 00:14:47;;;;;;;4.72;2.83;;;;;;;12.06;nan;100933.63;1040129;28;20092;-68
2021/12/03 00:15:17;;;;;;;6.43;2.90;;;;;;;12.04;nan;100933.56;1040069;28;20091;-68
2021/12/03 00:15:48;;;;;;;5.57;2.63;;;;;;;12.04;nan;100935.28;1035922;28;20018;-68
2021/12/03 00:16:18;;;;;;;5.10;2.83;;;;;;;12.03;nan;100931.81;1035798;28;20026;-69
2021/12/03 00:16:49;;;;;;;4.57;2.80;;;;;;;12.04;nan;100933.56;1031952;28;20018;-69
2021/12/03 00:17:19;;;;;;;6.18;2.92;;;;;;;12.03;nan;100929.25;1039470;28;20030;-68
2021/12/03 00:17:50;;;;;;;5.47;2.78;;;;;;;12.04;nan;100932.72;1039735;28;20033;-68
2021/12/03 00:18:20;;;;;;;5.55;2.67;;;;;;;12.03;nan;100931.81;1037187;28;20029;-69
2021/12/03 00:18:51;;;;;;;5.32;2.83;;;;;;;12.02;nan;100935.28;1039656;28;20032;-68
2021/12/03 00:19:21;;;;;;;5.40;2.83;;;;;;;12.03;nan;100936.13;1040137;28;20025;-68
2021/12/03 00:19:52;;;;;;;5.15;2.80;;;;;;;12.02;nan;100932.69;1036205;28;20018;-68
2021/12/03 00:20:24;;;;;;;4.72;2.88;;;;;;;12.02;nan;100934.38;1039959;28;20361;-68
2021/12/03 00:20:54;;;;;;;5.38;2.63;;;;;;;12.03;nan;100941.28;1040177;28;20025;-68
2021/12/03 00:21:26;;;;;;;4.43;2.80;;;;;;;12.03;nan;100937.00;1040126;28;20021;-68
2021/12/03 00:21:56;;;;;;;6.70;2.85;;;;;;;12.02;nan;100940.44;1043757;28;20032;-68
2021/12/03 00:22:26;;;;;;;5.28;2.78;;;;;;;12.02;nan;100935.28;1039989;28;20079;-69
2021/12/03 00:22:57;;;;;;;4.85;2.60;;;;;;;12.01;nan;100936.09;1040358;28;20028;-69
2021/12/03 00:23:28;;;;;;;5.30;2.60;;;;;;;12.01;nan;100933.53;1040007;28;20400;-68
2021/12/03 00:23:58;;;;;;;4.47;2.60;;;;;;;12.01;nan;100930.94;1038430;28;20595;-68
2021/12/03 00:24:29;;;;;;;7.32;2.80;;;;;;;12.01;nan;100928.38;1031842;28;20082;-68
2021/12/03 00:24:59;;;;;;;5.30;2.90;;;;;;;12.01;nan;100933.53;1032911;28;20026;-68
2021/12/03 00:25:29;;;;;;;4.90;2.85;;;;;;;12.00;nan;100934.34;1044304;28;20023;-68
2021/12/03 00:26:00;;;;;;;5.72;2.70;;;;;;;12.00;nan;100933.47;1040092;28;20044;-68
2021/12/03 00:26:30;;;;;;;5.63;2.78;;;;;;;11.99;nan;100927.44;1044177;28;20017;-68
2021/12/03 00:27:01;;;;;;;4.13;2.83;;;;;;;11.98;nan;100928.28;1043954;28;20021;-68
2021/12/03 00:27:31;;;;;;;5.65;3.15;;;;;;;11.99;nan;100932.63;1044240;28;20025;-68
2021/12/03 00:28:03;;;;;;;4.97;2.58;;;;;;;11.98;nan;100930.88;1044164;28;20021;-69
2021/12/03 00:28:33;;;;;;;5.57;2.58;;;;;;;11.98;nan;100923.13;1031243;28;20038;-68
2021/12/03 00:29:04;;;;;;;5.25;2.53;;;;;;;11.98;nan;100928.28;1031490;28;20010;-69
2021/12/03 00:29:34;;;;;;;4.90;2.85;;;;;;;11.97;nan;100931.69;1023698;28;20034;-68
2021/12/03 00:30:05;;;;;;;6.25;3.00;;;;;;;11.96;nan;100923.91;1028921;28;20023;-68
2021/12/03 00:30:37;;;;;;;5.80;2.60;;;;;;;11.96;nan;100929.06;1031685;28;20019;-68
2021/12/03 00:31:07;;;;;;;4.20;2.67;;;;;;;11.97;nan;100933.44;1032136;28;20129;-68
2021/12/03 00:31:37;;;;;;;6.05;2.90;;;;;;;11.95;nan;100930.75;1032331;28;20045;-69
2021/12/03 00:32:08;;;;;;;5.68;2.72;;;;;;;11.95;nan;100933.34;1035961;28;20010;-69
2021/12/03 00:32:38;;;;;;;3.83;2.47;;;;;;;11.94;nan;100928.16;1035833;28;20029;-69
2021/12/03 00:33:09;;;;;;;5.05;2.47;;;;;;;11.94;nan;100930.75;1039930;28;20028;-68
2021/12/03 00:33:39;;;;;;;5.50;2.60;;;;;;;11.94;nan;100931.63;1044318;28;20025;-68
2021/12/03 00:34:10;;;;;;;6.68;2.70;;;;;;;11.93;nan;100937.63;1040133;28;20104;-68
2021/12/03 00:34:40;;;;;;;5.95;2.70;;;;;;;11.94;nan;100936.78;1039123;28;20095;-68
2021/12/03 00:35:11;;;;;;;7.45;3.10;;;;;;;11.92;nan;100935.88;1029700;28;20026;-68
2021/12/03 00:35:41;;;;;;;5.68;3.05;;;;;;;11.92;nan;100938.47;1028166;28;20371;-69
2021/12/03 00:36:12;;;;;;;5.30;2.45;;;;;;;11.92;nan;100938.47;1027916;28;20589;-68
2021/12/03 00:36:42;;;;;;;4.75;2.97;;;;;;;11.91;nan;100936.72;1032096;28;20031;-68
2021/12/03 00:37:13;;;;;;;4.18;2.70;;;;;;;11.91;nan;100936.72;1039960;28;20064;-68
2021/12/03 00:37:43;;;;;;;6.50;2.90;;;;;;;11.90;nan;100934.97;1035963;28;20026;-68
2021/12/03 00:38:16;;;;;;;4.60;2.70;;;;;;;11.91;nan;100941.88;1031457;28;20097;-68
2021/12/03 00:38:49;;;;;;;4.43;2.40;;;;;;;11.91;nan;100941.88;1027393;28;20021;-68
2021/12/03 00:39:20;;;;;;;6.03;3.00;;;;;;;11.90;nan;100935.84;1027756;28;20185;-68
2021/12/03 00:39:50;;;;;;;4.63;2.78;;;;;;;11.91;nan;100931.53;1029375;28;20062;-68
2021/12/03 00:40:23;;;;;;;5.38;2.88;;;;;;;11.90;nan;100946.19;1034872;28;20374;-68
2021/12/03 00:40:53;;;;;;;4.47;2.63;;;;;;;11.89;nan;100934.09;1036100;28;20156;-69
2021/12/03 00:41:24;;;;;;;6.25;2.67;;;;;;;11.88;nan;100937.53;1039816;28;20056;-68
2021/12/03 00:41:59;;;;;;;4.82;3.00;;;;;;;11.90;nan;100940.13;1044133;28;20112;-68
2021/12/03 00:42:29;;;;;;;4.70;2.80;;;;;;;11.89;nan;100943.53;1036016;28;20483;-69
2021/12/03 00:43:00;;;;;;;4.78;2.60;;;;;;;11.88;nan;100944.38;1037162;28;20493;-69
2021/12/03 00:43:30;;;;;;;5.05;2.50;;;;;;;11.87;nan;100946.09;1040110;28;20504;-69
2021/12/03 00:44:01;;;;;;;5.85;2.78;;;;;;;11.87;nan;100946.09;1040291;28;20029;-69
2021/12/03 00:44:31;;;;;;;7.43;2.58;;;;;;;11.88;nan;100941.78;1039997;28;20025;-70
2021/12/03 00:45:03;;;;;;;5.15;2.70;;;;;;;11.87;nan;100940.09;1043787;28;20024;-69
2021/12/03 00:45:33;;;;;;;5.00;2.60;;;;;;;11.87;nan;100950.41;1043869;28;20028;-69
2021/12/03 00:46:08;;;;;;;4.55;2.60;;;;;;;11.86;nan;100943.50;1046219;28;20032;-69
2021/12/03 00:46:39;;;;;;;4.57;2.45;;;;;;;11.87;nan;100945.25;1040169;28;20025;-69
2021/12/03 00:47:09;;;;;;;6.55;2.78;;;;;;;11.85;nan;100934.00;1042661;28;20028;-68
2021/12/03 00:47:40;;;;;;;6.68;2.95;;;;;;;11.84;nan;100945.16;1039279;28;20025;-69
2021/12/03 00:48:10;;;;;;;4.95;2.63;;;;;;;11.84;nan;100951.19;1032641;28;20040;-68
2021/12/03 00:48:41;;;;;;;4.78;2.85;;;;;;;11.84;nan;100946.03;1035693;28;20030;-69
2021/12/03 00:49:11;;;;;;;5.97;2.88;;;;;;;11.84;nan;100946.03;1039757;28;20020;-69
2021/12/03 00:49:41;;;;;;;6.30;2.83;;;;;;;11.85;nan;100952.06;1040016;28;20292;-68
2021/12/03 00:50:14;;;;;;;5.18;2.90;;;;;;;11.86;nan;100953.81;1033951;28;20050;-68
2021/12/03 00:50:45;;;;;;;4.97;2.72;;;;;;;11.83;nan;100948.59;1035823;28;20088;-68
2021/12/03 00:51:16;;;;;;;5.85;2.83;;;;;;;11.84;nan;100955.50;1034904;28;20096;-68
2021/12/03 00:51:46;;;;;;;4.63;2.55;;;;;;;11.83;nan;100948.59;1032891;28;20512;-68
2021/12/03 00:52:16;;;;;;;5.85;3.08;;;;;;;11.82;nan;100949.41;1042994;28;20026;-68
2021/12/03 00:52:47;;;;;;;6.18;2.60;;;;;;;11.83;nan;100951.16;1048263;28;20399;-68
2021/12/03 00:53:17;;;;;;;5.88;2.60;;;;;;;11.83;nan;100956.31;1039937;28;20022;-68
2021/12/03 00:53:48;;;;;;;5.45;2.70;;;;;;;11.82;nan;100952.00;1039951;28;20021;-68
2021/12/03 00:54:18;;;;;;;6.03;3.10;;;;;;;11.82;nan;100955.47;1035775;28;20105;-68
2021/12/03 00:54:49;;;;;;;4.65;2.60;;;;;;;11.82;nan;100952.00;1032060;28;20018;-68
2021/12/03 00:55:20;;;;;;;5.82;2.80;;;;;;;11.81;nan;100960.56;1035616;28;20022;-68
2021/12/03 00:55:51;;;;;;;5.03;2.60;;;;;;;11.81;nan;100955.41;1035849;28;20038;-68
2021/12/03 00:56:21;;;;;;;6.72;2.78;;;;;;;11.80;nan;100953.69;1035933;28;20087;-68
2021/12/03 00:56:51;;;;;;;5.65;2.80;;;;;;;11.78;nan;100956.22;1037370;28;20041;-68
2021/12/03 00:57:22;;;;;;;5.22;2.50;;;;;;;11.80;nan;100958.84;1042057;28;20025;-68
2021/12/03 00:57:52;;;;;;;5.45;2.65;;;;;;;11.80;nan;100961.44;1040152;28;20017;-68
2021/12/03 00:58:23;;;;;;;4.90;2.60;;;;;;;11.79;nan;100959.69;1047379;28;20456;-68
2021/12/03 00:58:53;;;;;;;6.15;2.53;;;;;;;11.78;nan;100956.22;1040369;28;20377;-68
2021/12/03 00:59:23;;;;;;;5.60;2.80;;;;;;;11.78;nan;100952.78;1039874;28;20025;-68
2021/12/03 00:59:54;;;;;;;5.03;2.55;;;;;;;11.79;nan;100962.28;1035766;28;20018;-69
2021/12/03 01:00:26;;;;;;;4.75;2.67;;;;;;;11.78;nan;100956.22;1031289;28;20510;-68
2021/12/03 01:00:57;;;;;;;6.25;2.75;;;;;;;11.78;nan;100955.38;1032014;28;20389;-68
2021/12/03 01:01:27;;;;;;;5.18;2.85;;;;;;;11.77;nan;100959.63;1036279;28;20375;-68
2021/12/03 01:01:57;;;;;;;5.35;2.83;;;;;;;11.78;nan;100957.94;1035407;28;20103;-68
2021/12/03 01:02:28;;;;;;;6.32;2.85;;;;;;;11.78;nan;100955.38;1038043;28;20037;-68
2021/12/03 01:02:59;;;;;;;4.72;2.80;;;;;;;11.75;nan;100954.44;1043299;28;20021;-68
2021/12/03 01:03:29;;;;;;;4.95;2.80;;;;;;;11.77;nan;100953.63;1042138;28;20052;-69
2021/12/03 01:03:59;;;;;;;5.88;2.80;;;;;;;11.75;nan;100954.44;1040657;28;20052;-68
2021/12/03 01:04:30;;;;;;;4.78;2.60;;;;;;;11.75;nan;100946.72;1044493;28;20024;-68
2021/12/03 01:05:00;;;;;;;4.38;2.45;;;;;;;11.77;nan;100953.63;1043939;28;20029;-68
2021/12/03 01:05:31;;;;;;;3.92;2.53;;;;;;;11.76;nan;100957.91;1043886;28;20017;-68
2021/12/03 01:06:02;;;;;;;4.97;2.80;;;;;;;11.75;nan;100944.13;1039737;28;20021;-68
2021/12/03 01:06:32;;;;;;;5.20;2.70;;;;;;;11.75;nan;100946.72;1035871;28;20038;-68
2021/12/03 01:07:03;;;;;;;6.32;2.70;;;;;;;11.75;nan;100949.28;1032729;28;20023;-68
2021/12/03 01:07:33;;;;;;;4.97;2.70;;;;;;;11.78;nan;100950.19;1031773;28;20034;-68
2021/12/03 01:08:04;;;;;;;6.28;2.70;;;;;;;11.77;nan;100953.63;1029323;28;20037;-68
2021/12/03 01:08:37;;;;;;;5.25;3.03;;;;;;;11.77;nan;100953.63;1035483;28;20053;-68
2021/12/03 01:09:07;;;;;;;4.32;2.75;;;;;;;11.77;nan;100948.47;1035817;28;20018;-68
2021/12/03 01:09:38;;;;;;;4.95;2.67;;;;;;;11.77;nan;100958.78;1039700;28;20088;-68
2021/12/03 01:10:08;;;;;;;5.53;2.80;;;;;;;11.77;nan;100956.19;1043657;28;20503;-68
2021/12/03 01:10:39;;;;;;;5.85;2.75;;;;;;;11.79;nan;100962.28;1040341;28;20031;-68
2021/12/03 01:11:09;;;;;;;4.82;2.83;;;;;;;11.77;nan;100959.63;1038109;28;20018;-68
2021/12/03 01:11:40;;;;;;;6.53;3.10;;;;;;;11.77;nan;100958.78;1035899;28;20473;-68
2021/12/03 01:12:10;;;;;;;6.93;2.78;;;;;;;11.75;nan;100959.63;1029399;28;20147;-68
2021/12/03 01:12:41;;;;;;;5.15;3.20;;;;;;;11.75;nan;100954.44;1035832;28;20538;-68
2021/12/03 01:13:11;;;;;;;5.60;2.70;;;;;;;11.77;nan;100959.63;1035451;28;20096;-68
2021/12/03 01:13:42;;;;;;;4.38;2.55;;;;;;;11.75;nan;100962.19;1035415;28;20072;-68
2021/12/03 01:14:12;;;;;;;4.95;2.75;;;;;;;11.78;nan;100960.53;1042286;28;20025;-68
2021/12/03 01:14:42;;;;;;;5.07;3.05;;;;;;;11.76;nan;100957.91;1043987;28;20032;-68
2021/12/03 01:15:15;;;;;;;5.70;2.72;;;;;;;11.77;nan;100958.78;1044136;28;20020;-68
2021/12/03 01:15:45;;;;;;;4.50;2.78;;;;;;;11.75;nan;100957.03;1047641;28;20462;-68
2021/12/03 01:16:16;;;;;;;5.15;2.88;;;;;;;11.75;nan;100957.03;1041522;28;20440;-68
2021/12/03 01:16:46;;;;;;;5.32;2.90;;;;;;;11.75;nan;100954.44;1039818;28;20018;-69
2021/12/03 01:17:17;;;;;;;5.75;2.80;;;;;;;11.75;nan;100951.88;1039877;28;20455;-68
2021/12/03 01:17:47;;;;;;;4.60;2.80;;;;;;;11.75;nan;100948.44;1042352;28;20029;-68
2021/12/03 01:18:17;;;;;;;4.82;2.83;;;;;;;11.77;nan;100953.63;1040791;28;20036;-68
2021/12/03 01:18:48;;;;;;;4.32;2.63;;;;;;;11.74;nan;100952.69;1039807;28;20024;-68
2021/12/03 01:19:18;;;;;;;5.43;2.88;;;;;;;11.75;nan;100951.00;1038953;28;20079;-68
2021/12/03 01:19:48;;;;;;;4.22;2.75;;;;;;;11.75;nan;100957.03;1039904;28;20018;-68
2021/12/03 01:20:19;;;;;;;5.90;2.95;;;;;;;11.74;nan;100950.13;1037967;28;20456;-68
2021/12/03 01:20:49;;;;;;;5.32;2.78;;;;;;;11.74;nan;100950.13;1035777;28;20032;-68
2021/12/03 01:21:20;;;;;;;5.15;2.88;;;;;;;11.75;nan;100958.75;1032512;28;20030;-68
2021/12/03 01:21:50;;;;;;;6.82;3.30;;;;;;;11.73;nan;100950.97;1027360;28;20050;-68
2021/12/03 01:22:20;;;;;;;4.45;2.80;;;;;;;11.73;nan;100948.38;1031426;28;20309;-68
2021/12/03 01:22:51;;;;;;;4.47;2.80;;;;;;;11.73;nan;100948.38;1039753;28;20014;-68
2021/12/03 01:23:22;;;;;;;9.23;3.00;;;;;;;11.72;nan;100949.25;1044011;28;20466;-69
2021/12/03 01:23:52;;;;;;;5.18;2.95;;;;;;;11.72;nan;100950.94;1044350;28;20017;-68
2021/12/03 01:24:22;;;;;;;4.75;2.90;;;;;;;11.72;nan;100956.09;1045946;28;20036;-68
2021/12/03 01:24:53;;;;;;;5.82;3.13;;;;;;;11.72;nan;100951.81;1042787;28;20013;-68
2021/12/03 01:25:23;;;;;;;5.43;2.97;;;;;;;11.72;nan;100951.81;1043888;28;20032;-68
2021/12/03 01:25:53;;;;;;;8.38;2.80;;;;;;;11.72;nan;100949.25;1039138;28;20014;-69
2021/12/03 01:26:24;;;;;;;4.72;2.72;;;;;;;11.71;nan;100949.19;1039893;28;20025;-68
2021/12/03 01:26:55;;;;;;;4.93;2.67;;;;;;;11.71;nan;100949.19;1043832;28;20024;-68
2021/12/03 01:27:25;;;;;;;4.78;3.10;;;;;;;11.70;nan;100950.03;1044032;28;20028;-68
2021/12/03 01:27:58;;;;;;;4.05;2.67;;;;;;;11.71;nan;100949.19;1043912;28;20535;-68
2021/12/03 01:28:28;;;;;;;4.35;2.75;;;;;;;11.70;nan;100947.44;1037133;28;20108;-68
2021/12/03 01:28:59;;;;;;;4.70;2.70;;;;;;;11.69;nan;100946.59;1039709;28;20018;-68
2021/12/03 01:29:29;;;;;;;5.97;2.85;;;;;;;11.67;nan;100948.25;1036165;28;20026;-68
2021/12/03 01:29:59;;;;;;;5.15;3.08;;;;;;;11.67;nan;100948.25;1038882;28;20104;-68
2021/12/03 01:30:31;;;;;;;4.63;3.03;;;;;;;11.67;nan;100948.25;1035871;28;20025;-68
2021/12/03 01:31:01;;;;;;;5.05;2.90;;;;;;;11.67;nan;100953.41;1035766;28;20401;-68
2021/12/03 01:31:31;;;;;;;5.35;2.85;;;;;;;11.67;nan;100958.56;1039862;28;20492;-68
2021/12/03 01:32:02;;;;;;;4.68;2.85;;;;;;;11.66;nan;100956.81;1039832;28;20020;-68
2021/12/03 01:32:32;;;;;;;5.00;2.90;;;;;;;11.66;nan;100955.97;1043881;28;20017;-68
2021/12/03 01:33:05;;;;;;;4.72;2.85;;;;;;;11.67;nan;100957.72;1039567;28;20014;-68
2021/12/03 01:33:35;;;;;;;6.47;3.13;;;;;;;11.65;nan;100955.09;1031636;28;20026;-68
2021/12/03 01:34:05;;;;;;;5.55;2.97;;;;;;;11.64;nan;100958.53;1030726;28;20080;-68
2021/12/03 01:34:36;;;;;;;7.63;3.33;;;;;;;11.64;nan;100958.53;1032046;28;20018;-68
2021/12/03 01:35:07;;;;;;;5.22;2.75;;;;;;;11.64;nan;100952.47;1035494;28;20010;-68
2021/12/03 01:35:38;;;;;;;4.38;2.80;;;;;;;11.63;nan;100954.19;1045296;28;20031;-68
2021/12/03 01:36:08;;;;;;;7.32;2.88;;;;;;;11.64;nan;100957.63;1046349;28;20027;-68
2021/12/03 01:36:39;;;;;;;5.22;3.10;;;;;;;11.62;nan;100948.97;1043934;28;20535;-68
2021/12/03 01:37:09;;;;;;;4.72;2.90;;;;;;;11.63;nan;100955.88;1043770;28;20009;-68
2021/12/03 01:37:39;;;;;;;5.88;2.67;;;;;;;11.61;nan;100958.44;1043875;28;20021;-68
2021/12/03 01:38:10;;;;;;;4.97;2.97;;;;;;;11.60;nan;100951.53;1039721;28;20013;-68
2021/12/03 01:38:40;;;;;;;5.50;2.90;;;;;;;11.59;nan;100955.84;1043620;28;20082;-68
2021/12/03 01:39:12;;;;;;;4.95;2.97;;;;;;;11.59;nan;100960.09;1039709;28;20020;-68
2021/12/03 01:39:43;;;;;;;5.45;2.95;;;;;;;11.57;nan;100961.81;1036081;28;20018;-68
2021/12/03 01:40:16;;;;;;;4.88;3.03;;;;;;;11.57;nan;100959.22;1039448;28;20025;-68
2021/12/03 01:40:46;;;;;;;5.30;3.00;;;;;;;11.57;nan;100961.81;1039927;28;20064;-68
2021/12/03 01:41:16;;;;;;;5.75;3.05;;;;;;;11.56;nan;100950.59;1043451;28;20098;-68
2021/12/03 01:41:47;;;;;;;4.90;2.88;;;;;;;11.57;nan;100956.63;1039787;28;20369;-68
2021/12/03 01:42:17;;;;;;;5.72;2.75;;;;;;;11.56;nan;100954.91;1039703;28;20479;-68
2021/12/03 01:42:47;;;;;;;4.68;2.90;;;;;;;11.56;nan;100954.91;1039708;28;20017;-68
2021/12/03 01:43:23;;;;;;;6.38;2.60;;;;;;;11.55;nan;100958.31;1035675;28;20021;-68
2021/12/03 01:43:59;;;;;;;5.10;2.88;;;;;;;11.56;nan;100962.63;1039890;28;20287;-68
2021/12/03 01:44:30;;;;;;;5.82;3.20;;;;;;;11.57;nan;100959.22;1039876;28;20048;-68
2021/12/03 01:45:01;;;;;;;6.70;3.17;;;;;;;11.55;nan;100959.16;1041389;28;20083;-68
2021/12/03 01:45:33;;;;;;;5.65;3.05;;;;;;;11.56;nan;100962.63;1043204;28;20381;-68
2021/12/03 01:46:06;;;;;;;4.95;2.95;;;;;;;11.56;nan;100965.22;1036734;28;20024;-68
2021/12/03 01:46:36;;;;;;;5.60;3.30;;;;;;;11.55;nan;100963.47;1034928;28;20014;-68
2021/12/03 01:47:06;;;;;;;4.75;2.83;;;;;;;11.58;nan;100968.69;1033035;28;20395;-68
2021/12/03 01:47:37;;;;;;;4.43;2.85;;;;;;;11.54;nan;100961.72;1032040;28;20019;-68
2021/12/03 01:48:07;;;;;;;5.32;3.13;;;;;;;11.55;nan;100963.47;1034244;28;20017;-69
2021/12/03 01:48:38;;;;;;;4.85;3.10;;;;;;;11.54;nan;100961.72;1039378;28;20017;-68
2021/12/03 01:49:10;;;;;;;5.40;2.90;;;;;;;11.54;nan;100956.56;1041622;28;20013;-68
2021/12/03 01:49:40;;;;;;;8.00;3.00;;;;;;;11.54;nan;100964.28;1043733;28;20021;-68
2021/12/03 01:50:11;;;;;;;4.05;2.92;;;;;;;11.52;nan;100956.53;1041775;28;20088;-68
2021/12/03 01:50:43;;;;;;;6.72;3.03;;;;;;;11.53;nan;100955.69;1039821;28;20021;-68
2021/12/03 01:51:13;;;;;;;6.15;2.88;;;;;;;11.53;nan;100957.38;1042162;28;20006;-69
2021/12/03 01:51:43;;;;;;;7.57;3.03;;;;;;;11.52;nan;100958.22;1042345;28;20029;-69
2021/12/03 01:52:14;;;;;;;4.88;2.85;;;;;;;11.53;nan;100959.97;1039342;28;20123;-68
2021/12/03 01:52:44;;;;;;;7.88;3.00;;;;;;;11.54;nan;100951.41;1039589;28;20017;-68
2021/12/03 01:53:16;;;;;;;4.70;3.03;;;;;;;11.52;nan;100948.78;1038041;28;20385;-68
2021/12/03 01:53:46;;;;;;;4.15;2.85;;;;;;;11.51;nan;100952.19;1031554;28;20027;-68
2021/12/03 01:54:16;;;;;;;5.30;2.72;;;;;;;11.53;nan;100957.38;1035573;28;20022;-68
2021/12/03 01:54:47;;;;;;;4.60;2.88;;;;;;;11.51;nan;100956.47;1035879;28;20018;-68
2021/12/03 01:55:17;;;;;;;5.40;2.90;;;;;;;11.51;nan;100951.31;1035469;28;20065;-69
2021/12/03 01:55:47;;;;;;;5.90;2.85;;;;;;;11.51;nan;100954.78;1039618;28;20037;-68
2021/12/03 01:56:18;;;;;;;4.63;2.83;;;;;;;11.49;nan;100951.28;1035454;28;20026;-68
2021/12/03 01:56:48;;;;;;;6.43;3.20;;;;;;;11.52;nan;100955.63;1035735;28;20479;-68
2021/12/03 01:57:18;;;;;;;6.78;3.33;;;;;;;11.51;nan;100951.31;1039319;28;20022;-68
2021/12/03 01:57:49;;;;;;;4.55;2.75;;;;;;;11.51;nan;100953.91;1038530;28;20021;-68
2021/12/03 01:58:19;;;;;;;5.43;3.00;;;;;;;11.49;nan;100953.88;1046589;28;20387;-69
2021/12/03 01:58:50;;;;;;;5.85;3.08;;;;;;;11.48;nan;100952.13;1039810;28;20033;-68
2021/12/03 01:59:21;;;;;;;4.38;2.72;;;;;;;11.50;nan;100955.63;1043158;28;20104;-68
2021/12/03 01:59:51;;;;;;;5.38;2.90;;;;;;;11.50;nan;100954.75;1039922;28;20141;-68
2021/12/03 02:00:21;;;;;;;3.97;2.90;;;;;;;11.49;nan;100958.16;1036223;28;20026;-68
2021/12/03 02:00:54;;;;;;;7.18;3.05;;;;;;;11.49;nan;100959.03;1043879;28;20502;-68
2021/12/03 02:01:26;;;;;;;4.93;2.75;;;;;;;11.49;nan;100958.16;1039948;28;20064;-67
2021/12/03 02:01:57;;;;;;;5.45;2.72;;;;;;;11.49;nan;100955.59;1043931;28;20442;-68
2021/12/03 02:02:28;;;;;;;5.70;3.00;;;;;;;11.48;nan;100957.28;1043693;28;20021;-68
2021/12/03 02:02:58;;;;;;;4.13;2.70;;;;;;;11.47;nan;100960.69;1035407;28;20030;-68
2021/12/03 02:03:31;;;;;;;3.92;2.53;;;;;;;11.48;nan;100956.41;1032746;28;20014;-68
2021/12/03 02:04:03;;;;;;;5.28;2.65;;;;;;;11.48;nan;100956.41;1030507;28;20022;-68
2021/12/03 02:04:34;;;;;;;5.50;3.17;;;;;;;11.47;nan;100959.84;1028144;28;20406;-68
2021/12/03 02:05:04;;;;;;;5.65;2.90;;;;;;;11.47;nan;100952.94;1034520;28;20429;-68
2021/12/03 02:05:35;;;;;;;5.00;3.00;;;;;;;11.48;nan;100957.28;1043482;28;20080;-69
2021/12/03 02:06:06;;;;;;;4.60;2.85;;;;;;;11.47;nan;100957.25;1037111;28;20484;-68
2021/12/03 02:06:37;;;;;;;6.70;2.72;;;;;;;11.46;nan;100953.81;1039674;28;20036;-68
2021/12/03 02:07:07;;;;;;;5.35;2.90;;;;;;;11.47;nan;100950.38;1037945;28;20027;-68
2021/12/03 02:07:38;;;;;;;4.03;2.53;;;;;;;11.48;nan;100961.59;1035944;28;20030;-68
2021/12/03 02:08:08;;;;;;;5.70;2.70;;;;;;;11.46;nan;100958.09;1034858;28;20045;-68
2021/12/03 02:08:39;;;;;;;6.45;2.78;;;;;;;11.47;nan;100965.00;1039288;28;20022;-69
2021/12/03 02:09:09;;;;;;;4.22;2.80;;;;;;;11.46;nan;100955.50;1035531;28;20057;-68
2021/12/03 02:09:40;;;;;;;5.15;2.90;;;;;;;11.47;nan;100959.84;1035794;28;20032;-68
2021/12/03 02:10:10;;;;;;;4.97;2.90;;;;;;;11.45;nan;100962.38;1037627;28;20026;-68
2021/12/03 02:10:41;;;;;;;4.40;2.80;;;;;;;11.46;nan;100950.34;1035573;28;20105;-68
2021/12/03 02:11:11;;;;;;;5.30;3.20;;;;;;;11.45;nan;100957.22;1033645;28;20097;-68
2021/12/03 02:11:42;;;;;;;4.97;3.00;;;;;;;11.45;nan;100954.66;1035849;28;20049;-68
2021/12/03 02:12:12;;;;;;;7.20;3.08;;;;;;;11.45;nan;100957.22;1034320;28;20019;-69
2021/12/03 02:12:43;;;;;;;5.35;3.05;;;;;;;11.47;nan;100959.84;1031398;28;20023;-68
2021/12/03 02:13:13;;;;;;;4.40;2.70;;;;;;;11.45;nan;100951.19;1034126;28;20133;-68
2021/12/03 02:13:44;;;;;;;5.63;2.90;;;;;;;11.43;nan;100949.44;1035233;28;20022;-68
2021/12/03 02:14:14;;;;;;;5.35;3.00;;;;;;;11.45;nan;100956.34;1042232;28;20105;-68
2021/12/03 02:14:44;;;;;;;4.57;2.70;;;;;;;11.46;nan;100955.50;1039555;28;20433;-69
2021/12/03 02:15:15;;;;;;;5.95;2.78;;;;;;;11.43;nan;100938.25;1038107;28;20485;-68
2021/12/03 02:15:46;;;;;;;4.45;2.60;;;;;;;11.43;nan;100944.28;1036869;28;20469;-68
2021/12/03 02:16:17;;;;;;;5.43;2.80;;;;;;;11.43;nan;100949.44;1038484;28;20555;-68
2021/12/03 02:16:47;;;;;;;5.68;2.90;;;;;;;11.43;nan;100944.28;1037994;28;20013;-68
2021/12/03 02:17:17;;;;;;;4.45;2.72;;;;;;;11.45;nan;100946.03;1043772;28;20028;-69
2021/12/03 02:17:48;;;;;;;5.03;2.60;;;;;;;11.48;nan;100946.09;1039705;28;20441;-68
2021/12/03 02:18:19;;;;;;;5.97;2.70;;;;;;;11.46;nan;100945.19;1039136;28;20496;-68
2021/12/03 02:18:49;;;;;;;4.85;2.70;;;;;;;11.47;nan;100950.38;1041193;28;20021;-68
2021/12/03 02:19:19;;;;;;;4.60;2.70;;;;;;;11.48;nan;100944.38;1043524;28;20075;-68
2021/12/03 02:19:50;;;;;;;5.72;2.72;;;;;;;11.49;nan;100943.53;1043922;28;20017;-68
2021/12/03 02:20:20;;;;;;;5.57;2.42;;;;;;;11.51;nan;100946.16;1039062;28;20033;-68
2021/12/03 02:20:52;;;;;;;4.97;2.85;;;;;;;11.53;nan;100941.91;1039692;28;20025;-68
2021/12/03 02:21:22;;;;;;;4.78;2.55;;;;;;;11.52;nan;100935.88;1035562;28;20036;-68
2021/12/03 02:21:52;;;;;;;5.20;2.50;;;;;;;11.54;nan;100941.06;1028071;28;20019;-68
2021/12/03 02:22:23;;;;;;;5.32;2.55;;;;;;;11.55;nan;100937.66;1027945;28;20364;-68
2021/12/03 02:22:53;;;;;;;4.45;2.67;;;;;;;11.56;nan;100935.09;1027640;28;20107;-68
2021/12/03 02:23:24;;;;;;;4.45;2.50;;;;;;;11.56;nan;100934.25;1030861;28;20022;-68
2021/12/03 02:23:56;;;;;;;5.00;2.53;;;;;;;11.57;nan;100936.00;1025058;28;20402;-68
2021/12/03 02:24:26;;;;;;;5.82;2.67;;;;;;;11.57;nan;100930.84;1026937;28;20026;-68
2021/12/03 02:24:56;;;;;;;5.07;2.72;;;;;;;11.57;nan;100936.84;1031820;28;20023;-68
2021/12/03 02:25:27;;;;;;;3.70;2.33;;;;;;;11.58;nan;100932.56;1040004;28;20048;-69
2021/12/03 02:25:57;;;;;;;5.43;2.58;;;;;;;11.61;nan;100931.78;1047769;28;20553;-68
2021/12/03 02:26:27;;;;;;;5.43;2.45;;;;;;;11.59;nan;100934.31;1043874;28;20028;-68